Station: Yanco  

  Atmospheric Gas Attenuation - ITU Rec 676-11   ----------------- dB/100km -----------------
Date Time Temp RH % AH g/m3 Dew Point Wind Direction Speed kph Gust kph Barometer mB Rainfall Since 9am 24GHz 47GHz 76GHz 122GHz 134GHz 241GHz
08/05 12:30 16 64 8.72 9.2 24 33 1013.1 0 19.7 25.4 39.2 102.8 97.2 334.5
08/05 12:20 15.6 65 8.64 9 30 33 1013.1 0 19.6 25.4 39.1 102.5 96.7 332.6
08/05 12:10 15.7 65 8.7 9.1 28 37 1013.1 0 19.7 25.5 39.2 103.0 97.3 334.9
08/05 12:00 15.4 65 8.54 8.9 26 33 1013.1 0 19.4 25.3 38.8 101.7 95.6 328.9
08/05 11:50 15.4 65 8.54 9 28 32 1013.1 0 19.4 25.3 38.8 101.7 95.6 328.9
08/05 11:40 15.1 67 8.64 9 24 28 1013.1 0 19.6 25.6 39.3 103.1 97.3 334.7
08/05 11:30 15 67 8.59 8.9 22 33 1013.1 0 19.5 25.5 39.2 102.8 96.8 332.9
08/05 11:20 15.5 67 8.86 9.4 24 30 1013.1 0 20.1 25.8 40.0 104.9 99.6 343.0
08/05 11:10 14.5 68 8.46 8.8 19 24 1013.1 0 19.3 25.5 38.9 102.0 95.7 329.1
08/05 11:00 14.2 69 8.43 8.6 20 28 1013.1 0 19.2 25.5 38.9 102.1 95.7 328.9
08/05 10:50 14.1 70 8.5 8.7 24 28 1013.1 0 19.4 25.6 39.2 103.0 96.7 332.6
08/05 10:40 13.8 72 8.58 8.8 19 20 1013.1 0 19.5 25.9 39.7 104.2 98.1 337.5
08/05 10:30 13.5 73 8.54 8.8 19 26 1013.1 0 19.5 25.9 39.7 104.2 98.0 337.0
08/05 10:20 13.1 73 8.33 8.5 20 24 1013.1 0 19.0 25.7 39.1 102.5 95.7 328.9
08/05 10:10 13 73 8.28 8.4 22 32 1013.1 0 18.9 25.6 38.9 102.1 95.2 327.1
08/05 10:00 13.1 74 8.44 8.6 19 28 1013.1 0 19.3 25.8 39.5 103.6 97.2 334.0
08/05 09:50 12.5 74 8.14 8 24 30 1013.1 0 18.7 25.5 38.6 101.2 93.9 322.6
08/05 09:40 12.4 75 8.2 8.1 20 22 1013.1 0 18.8 25.6 38.9 102.0 94.8 325.8
08/05 09:30 12 76 8.1 7.9 17 24 1013.1 0 18.6 25.6 38.7 101.4 94.0 322.8
08/05 09:20 11.4 78 8.01 7.7 19 20 1013.1 0 18.4 25.6 38.6 101.2 93.5 321.1
08/05 09:10 11.4 78 8.01 7.7 20 22 1013.1 0 18.4 25.6 38.6 101.2 93.5 321.1
08/05 09:00 11.2 79 8.01 7.7 15 26 1013.1 0 18.4 25.7 38.7 101.5 93.8 321.9
08/05 08:50 10.9 79 7.86 7.4 17 22 1013.1 0 18.1 25.5 38.2 100.2 92.1 316.1
08/05 08:40 10.6 80 7.81 7.3 19 26 1013.1 0 18.0 25.5 38.2 100.1 91.8 315.0
08/05 08:30 10.3 82 7.85 7.4 17 24 1013.1 0 18.1 25.7 38.5 100.9 92.7 318.1
08/05 08:20 9.9 81 7.56 6.9 22 24 1013.1 0 17.5 25.3 37.5 98.2 89.3 306.0
08/05 08:10 9.9 81 7.56 6.9 17 20 1013.1 0 17.5 25.3 37.5 98.2 89.3 306.0
08/05 08:00 9.8 82 7.61 6.9 15 24 1013.1 0 17.7 25.4 37.7 98.9 90.1 308.8
08/05 07:50 9.7 81 7.47 6.7 17 20 1013.1 0 17.4 25.2 37.2 97.5 88.3 302.6
08/05 07:40 9.7 81 7.47 6.6 19 20 1013.1 0 17.4 25.2 37.2 97.5 88.3 302.6
08/05 07:30 9.8 80 7.42 6.5 19 24 1013.1 0 17.2 25.1 37.0 96.8 87.5 299.9
08/05 07:20 9.8 79 7.33 6.3 13 17 1013.1 0 17.1 25.0 36.6 95.9 86.3 295.7
08/05 07:10 9.9 78 7.28 6.2 19 26 1013.1 0 16.9 24.9 36.4 95.2 85.5 293.0
08/05 07:00 10 77 7.24 6.2 22 32 1013.1 0 16.8 24.8 36.1 94.7 84.9 290.7
08/05 06:50 10 77 7.24 6.1 24 28 1013.1 0 16.8 24.8 36.1 94.7 84.9 290.7
08/05 06:40 10 77 7.24 6.1 17 20 1013.1 0 16.8 24.8 36.1 94.7 84.9 290.7
08/05 06:30 10.1 76 7.19 6.1 20 28 1013.1 0 16.7 24.7 35.9 94.0 84.1 288.0
08/05 06:20 10.1 76 7.19 6 17 22 1013.1 0 16.7 24.7 35.9 94.0 84.1 288.0
08/05 06:10 10.1 74 7 5.8 17 19 1013.1 0 16.3 24.4 35.1 92.0 81.6 279.3
08/05 06:00 10.1 75 7.09 5.9 13 24 1013.1 0 16.5 24.5 35.5 92.9 82.8 283.4
08/05 05:50 10.1 74 7 5.8 13 17 1013.1 0 16.3 24.4 35.1 92.0 81.6 279.3
08/05 05:40 10 74 6.96 5.7 13 17 1013.1 0 16.2 24.3 35.0 91.7 81.2 277.8
08/05 05:30 10 74 6.96 5.6 13 19 1013.1 0 16.2 24.3 35.0 91.7 81.2 277.8
08/05 05:20 10 73 6.86 5.5 17 19 1013.1 0 16.0 24.2 34.6 90.6 79.9 273.3
08/05 05:10 9.9 73 6.82 5.3 17 20 1013.1 0 16.0 24.1 34.5 90.3 79.5 271.8
08/05 05:00 9.9 73 6.82 5.3 15 24 1013.1 0 16.0 24.1 34.5 90.3 79.5 271.8
08/05 04:50 9.8 73 6.77 5.2 20 24 1013.1 0 15.8 24.1 34.4 89.9 79.0 269.8
08/05 04:40 9.8 74 6.87 5.4 11 15 1013.1 0 16.1 24.2 34.8 91.0 80.3 274.4
08/05 04:30 9.7 73 6.73 5.1 11 17 1013.1 0 15.8 24.0 34.3 89.6 78.5 268.4
08/05 04:20 9.6 73 6.69 5 15 17 1013.1 0 15.7 24.0 34.1 89.3 78.1 266.9
08/05 04:10 9.4 74 6.69 5 13 17 1013.1 0 15.7 24.0 34.2 89.5 78.3 267.5
08/05 04:00 9.4 73 6.6 4.8 15 20 1013.1 0 15.5 23.9 33.9 88.6 77.1 263.4
08/05 03:50 9.2 73 6.52 4.6 15 19 1013.1 0 15.3 23.8 33.6 88.0 76.3 260.5
08/05 03:40 9.1 73 6.48 4.5 15 17 1013.1 0 15.3 23.8 33.5 87.6 75.9 259.0
08/05 03:30 9 72 6.35 4.2 17 20 1013.1 0 15.0 23.6 33.1 86.4 74.3 253.4
08/05 03:20 9 72 6.35 4.2 15 19 1013.1 0 15.0 23.6 33.1 86.4 74.3 253.4
08/05 03:10 8.9 72 6.31 4.1 15 19 1013.1 0 14.9 23.6 32.9 86.1 73.9 251.9
08/05 03:00 8.9 72 6.31 4.1 15 22 1013.1 0 14.9 23.6 32.9 86.1 73.9 251.9
08/05 02:50 8.8 72 6.27 4 15 17 1013.1 0 14.8 23.5 32.8 85.8 73.4 250.4
08/05 02:40 8.7 73 6.32 4.1 15 17 1013.1 0 14.9 23.6 33.1 86.4 74.2 253.0
08/05 02:30 8.5 73 6.24 3.9 13 20 1013.1 0 14.8 23.6 32.8 85.8 73.3 250.0
08/05 02:20 8.6 72 6.19 3.8 15 17 1013.1 0 14.7 23.5 32.6 85.1 72.6 247.4
08/05 02:10 8.7 72 6.23 3.9 11 13 1013.1 0 14.7 23.5 32.7 85.5 73.0 248.9
08/05 02:00 8.8 71 6.18 3.8 13 20 1013.1 0 14.6 23.4 32.5 84.8 72.3 246.3
08/05 01:50 8.9 70 6.13 3.7 17 19 1013.1 0 14.5 23.3 32.2 84.2 71.6 243.8
08/05 01:40 8.8 70 6.09 3.6 15 19 1013.1 0 14.4 23.3 32.1 83.9 71.1 242.3
08/05 01:30 9 69 6.09 3.6 15 19 1013.1 0 14.4 23.2 32.0 83.7 70.9 241.7
08/05 01:20 9.3 69 6.2 3.9 15 20 1013.1 0 14.6 23.3 32.3 84.5 72.1 245.7
08/05 01:10 9 70 6.17 3.8 15 19 1013.1 0 14.6 23.3 32.4 84.5 72.0 245.3
08/05 01:00 9.2 69 6.16 3.8 15 20 1013.1 0 14.6 23.3 32.2 84.2 71.7 244.2
08/05 00:50 9.3 68 6.11 3.7 17 20 1013.1 0 14.5 23.2 32.0 83.6 70.9 241.6
08/05 00:40 9.4 67 6.06 3.6 15 17 1013.1 0 14.3 23.1 31.8 83.0 70.2 239.1
08/05 00:20 9.7 65 5.99 3.4 17 19 1013.1 0 14.2 22.9 31.4 81.9 69.1 235.1
08/05 00:10 9.6 65 5.96 3.3 15 17 1013.1 0 14.1 22.9 31.3 81.7 68.8 234.1
08/05 00:00 9.8 64 5.94 3.3 15 22 1013.1 0 14.1 22.8 31.2 81.3 68.3 232.6
07/05 23:50 9.8 64 5.94 3.3 19 22 1013.1 0 14.1 22.8 31.2 81.3 68.3 232.6
07/05 23:40 9.4 65 5.88 3.3 15 19 1013.1 0 14.0 22.8 31.1 81.1 67.9 231.1
07/05 23:30 9.1 67 5.95 3.3 11 22 1013.1 0 14.1 23.0 31.5 82.1 69.1 235.1
07/05 23:20 8.2 71 5.95 3.2 7 11 1013.1 0 14.2 23.2 31.8 83.1 69.9 237.8
07/05 23:10 7.4 72 5.73 2.8 6 7 1013.1 0 13.7 23.1 31.3 81.6 67.7 230.2
07/05 23:00 8.2 70 5.86 3.1 7 11 1013.1 0 14.0 23.1 31.5 82.1 68.7 233.7
07/05 22:50 8.4 67 5.69 2.6 7 9 1013.1 0 13.6 22.7 30.7 80.2 66.4 225.6
07/05 22:40 8.8 66 5.75 2.8 9 11 1013.1 0 13.7 22.7 30.8 80.4 66.8 227.1
07/05 22:30 8.6 66 5.67 2.6 11 17 1013.1 0 13.5 22.7 30.6 79.8 66.0 224.1
07/05 22:20 8.3 67 5.65 2.5 9 13 1013.1 0 13.5 22.7 30.6 79.9 66.0 224.1
07/05 22:10 8.3 67 5.65 2.5 9 9 1013.1 0 13.5 22.7 30.6 79.9 66.0 224.1
07/05 22:00 8.7 65 5.62 2.5 9 15 1013.1 0 13.4 22.6 30.4 79.2 65.2 221.6
07/05 21:50 8.8 65 5.66 2.6 9 11 1013.1 0 13.5 22.6 30.5 79.5 65.7 223.1
07/05 21:40 8.9 64 5.61 2.4 9 11 1013.1 0 13.4 22.5 30.2 78.9 65.0 220.6
07/05 21:30 9 63 5.56 2.3 11 19 1013.1 0 13.3 22.4 30.0 78.3 64.2 218.1
07/05 21:20 9 63 5.56 2.3 13 15 1013.1 0 13.3 22.4 30.0 78.3 64.2 218.1
07/05 21:10 8.9 63 5.52 2.2 11 13 1013.1 0 13.2 22.3 29.9 77.9 63.8 216.7
07/05 21:00 9.1 62 5.5 2.2 11 17 1013.1 0 13.2 22.3 29.7 77.5 63.4 215.2
07/05 20:50 8.9 63 5.52 2.2 11 13 1013.1 0 13.2 22.3 29.9 77.9 63.8 216.7
07/05 20:40 9 62 5.47 2.1 11 11 1013.1 0 13.1 22.2 29.7 77.3 63.1 214.2
07/05 20:30 9 62 5.47 2.1 11 17 1013.1 0 13.1 22.2 29.7 77.3 63.1 214.2
07/05 20:20 9.2 60 5.36 2 13 17 1013.1 0 12.9 22.0 29.2 76.0 61.6 208.9
07/05 20:10 9.3 60 5.39 2.1 13 15 1013.1 0 12.9 22.1 29.3 76.3 61.9 209.9
07/05 20:00 9.4 60 5.43 2 11 17 1013.1 0 13.0 22.1 29.4 76.6 62.3 211.4
07/05 19:50 9.5 59 5.37 1.9 11 11 1013.1 0 12.9 22.0 29.1 75.9 61.5 208.5

Last Refresh: 08-May-2026 12:07:59

Bureau of Meteorology